Αρχική σελίδα
METAR-TAF:

METAR-TAF

Αεροδρόμια :

Tonopah Airport

Tonopah, Νεβάδα, Ηνωμένες Πολιτείες Αμερικής

γεωγραφικό πλάτος: 38-03-37N, γεωγραφικό μήκος: 117-05-14W, υψόμετρο: 1654 μ

Παρών καιρός

Η αναφορά έγινε 36 λεπτά πριν, στις 09:56 UTC
Άνεμος 7 kt από Β
Θερμοκρασία 10°C
Υγρασία 32%
Πίεση 1015 hPa
Ορατότητα: 16.1 χλμ
Καθαρός ουρανός

METAR: KTPH 190956Z AUTO 35007KT 10SM CLR 10/M06 A2997 RMK AO2 SLP083 T01001061 $

Χρόνος: 03:32 (10:32 UTC)

Πρόγνωση Καιρού

Η αναφορά έγινε 5 ώρες και 12 λεπτά πριν, στις 05:20 UTC
Η πρόγνωση ισχύει από τις 19 στις 06 UTC έως τις 20 στις 06 UTC
Άνεμος 7 kt από Β
Ορατότητα: 10 χλμ
Καθαρός ουρανός
Από 19 στις 2000 UTC
Άνεμος 10 kt από με ριπές μέχρι 20 kt
Ορατότητα: 10 χλμ
Καθαρός ουρανός
Από 20 στις 0400 UTC
Άνεμος 10 kt από Β
Ορατότητα: 10 χλμ
Καθαρός ουρανός

TAF: KTPH 190520Z 1906/2006 36007KT P6SM SKC FM192000 32010G20KT P6SM SKC FM200400 35010KT P6SM SKC

Μετεωρολογικές αναφορές και προγνώσεις για περισσότερα από 4000 αεροδρόμια (δελτία METAR και TAF).

Οι διαθέσιμοι σταθμοί απεικονίζονται στο χάρτη με κίτρινες και κόκκινες κουκκίδες.

Μετακινήστε το ποντίκι πάνω από τις κουκκίδες για να δείτε το όνομα του σταθμού.

Στη συνέχεια, κάντε κλικ για να δείτε τις μετεωρολογικές αναφορές και τις προγνώσεις καιρού.

Για να αλλάξετε το χάρτη: κάντε κλικ στα πράσινα κουμπιά με τον μαύρο σταυρό για να ζουμάρετε, στο πράσινο κουμπί με την παύλα για να αφαιρέσετε το ζουμ ή στα πράσινα βέλη για να αντιπαραβάλλετε χάρτες.


METAR-TAF: